createdAt,value
2022-12-31T00:00:13.348Z,99.90
2022-12-31T00:02:16.550Z,99.90
2022-12-31T00:04:19.787Z,99.90
2022-12-31T00:06:26.757Z,99.90
2022-12-31T00:08:29.952Z,99.90
2022-12-31T00:10:39.939Z,99.90
2022-12-31T00:12:43.444Z,99.90
2022-12-31T00:14:46.575Z,99.90
2022-12-31T00:16:49.841Z,99.90
2022-12-31T00:18:55.617Z,99.90
2022-12-31T00:20:58.788Z,99.90
2022-12-31T00:23:03.641Z,99.90
2022-12-31T00:25:07.948Z,99.90
2022-12-31T00:27:11.217Z,99.90
2022-12-31T00:29:14.469Z,99.90
2022-12-31T00:31:20.251Z,99.90
2022-12-31T00:33:23.452Z,99.90
2022-12-31T00:35:27.035Z,99.90
2022-12-31T00:37:30.393Z,99.90
2022-12-31T00:39:35.117Z,99.90
2022-12-31T00:41:38.768Z,99.90
2022-12-31T00:43:42.339Z,99.90
2022-12-31T00:45:45.591Z,99.90
2022-12-31T00:47:48.811Z,99.90
2022-12-31T00:49:51.989Z,99.90
2022-12-31T00:51:55.231Z,99.90
2022-12-31T00:53:59.400Z,99.90
2022-12-31T00:56:05.734Z,99.90
2022-12-31T00:58:09.161Z,99.90
2022-12-31T01:00:13.599Z,99.90
2022-12-31T01:02:16.910Z,99.90
2022-12-31T01:04:22.051Z,99.90
2022-12-31T01:06:25.726Z,99.90
2022-12-31T01:08:28.910Z,99.90
2022-12-31T01:10:49.789Z,99.90
2022-12-31T01:12:54.294Z,99.90
2022-12-31T01:14:57.461Z,99.90
2022-12-31T01:17:00.605Z,99.90
2022-12-31T01:19:06.758Z,99.90
2022-12-31T01:21:12.577Z,99.90
2022-12-31T01:23:15.835Z,99.90
2022-12-31T01:25:19.099Z,99.90
2022-12-31T01:27:22.295Z,99.90
2022-12-31T01:29:26.948Z,99.90
2022-12-31T01:31:30.866Z,99.90
2022-12-31T01:33:34.281Z,99.90
2022-12-31T01:35:37.889Z,99.90
2022-12-31T01:37:41.023Z,99.90
2022-12-31T01:39:44.315Z,99.90
2022-12-31T01:41:48.670Z,99.90
2022-12-31T01:43:54.522Z,99.90
2022-12-31T01:45:59.198Z,99.90
2022-12-31T01:48:02.449Z,99.90
2022-12-31T01:50:11.371Z,99.90
2022-12-31T01:52:19.610Z,99.90
2022-12-31T01:54:25.663Z,99.90
2022-12-31T01:56:29.063Z,99.90
2022-12-31T01:58:39.068Z,99.90
2022-12-31T02:00:42.480Z,99.90
2022-12-31T02:02:48.060Z,99.90
2022-12-31T02:04:54.660Z,99.90
2022-12-31T02:07:01.224Z,99.90
2022-12-31T02:09:04.630Z,99.90
2022-12-31T02:11:25.868Z,99.90
2022-12-31T02:13:29.187Z,99.90
2022-12-31T02:15:38.903Z,99.90
2022-12-31T02:17:57.374Z,99.90
2022-12-31T02:20:32.903Z,99.90
2022-12-31T02:22:53.834Z,99.90
2022-12-31T02:25:20.273Z,99.90
2022-12-31T02:27:35.266Z,99.90
2022-12-31T02:30:17.317Z,99.90
2022-12-31T02:32:26.472Z,99.90
2022-12-31T02:34:35.926Z,99.90
2022-12-31T02:36:44.679Z,99.90
2022-12-31T02:38:49.937Z,99.90
2022-12-31T02:40:55.129Z,99.90
2022-12-31T02:42:58.505Z,99.90
2022-12-31T02:45:01.650Z,99.90
2022-12-31T02:47:19.139Z,99.90
2022-12-31T02:49:28.476Z,99.90
2022-12-31T02:51:41.491Z,99.90
2022-12-31T02:54:03.201Z,99.90
2022-12-31T02:56:15.608Z,99.90
2022-12-31T02:58:50.966Z,99.90
2022-12-31T03:01:16.752Z,99.90
2022-12-31T03:03:21.447Z,99.90
2022-12-31T03:05:29.423Z,99.90
2022-12-31T03:07:34.225Z,99.90
2022-12-31T03:09:38.145Z,99.90
2022-12-31T03:11:55.852Z,99.90
2022-12-31T03:13:59.142Z,99.90
2022-12-31T03:16:02.373Z,99.90
2022-12-31T03:18:07.974Z,99.90
2022-12-31T03:20:29.380Z,99.90
2022-12-31T03:22:33.296Z,99.90
2022-12-31T03:24:53.992Z,99.90
2022-12-31T03:26:57.372Z,99.90
2022-12-31T03:29:00.561Z,99.90
2022-12-31T03:31:04.979Z,99.90
2022-12-31T03:33:09.120Z,99.90
2022-12-31T03:35:13.651Z,99.90
2022-12-31T03:37:16.822Z,99.90
2022-12-31T03:39:21.428Z,99.90
2022-12-31T03:41:24.924Z,99.90
2022-12-31T03:43:28.374Z,99.90
2022-12-31T03:45:31.776Z,99.90
2022-12-31T03:47:35.073Z,99.90
2022-12-31T03:49:38.243Z,99.90
2022-12-31T03:51:41.385Z,99.90
2022-12-31T03:53:44.573Z,99.90
2022-12-31T03:55:52.146Z,99.90
2022-12-31T03:57:55.331Z,99.90
2022-12-31T03:59:58.806Z,99.90
2022-12-31T04:02:02.083Z,99.90
2022-12-31T04:04:05.680Z,99.90
2022-12-31T04:06:09.438Z,99.90
2022-12-31T04:08:12.706Z,99.90
2022-12-31T04:10:18.064Z,99.90
2022-12-31T04:12:22.695Z,99.90
2022-12-31T04:14:26.146Z,99.90
2022-12-31T04:16:29.410Z,99.90
2022-12-31T04:18:32.751Z,99.90
2022-12-31T04:20:36.015Z,99.90
2022-12-31T04:22:39.438Z,99.90
2022-12-31T04:24:43.918Z,99.90
2022-12-31T04:26:47.149Z,99.90
2022-12-31T04:28:51.840Z,99.90
2022-12-31T04:30:55.016Z,99.90
2022-12-31T04:32:58.245Z,99.90
2022-12-31T04:35:01.381Z,99.90
2022-12-31T04:37:04.978Z,99.90
2022-12-31T04:39:08.211Z,99.90
2022-12-31T04:41:21.234Z,99.90
2022-12-31T04:43:24.480Z,99.90
2022-12-31T04:45:29.114Z,99.90
2022-12-31T04:47:32.251Z,99.90
2022-12-31T04:49:35.378Z,99.90
2022-12-31T04:51:38.680Z,99.90
2022-12-31T04:53:42.489Z,99.90
2022-12-31T04:55:47.090Z,99.90
2022-12-31T04:57:50.183Z,99.90
2022-12-31T04:59:53.505Z,99.90
2022-12-31T05:01:58.241Z,99.90
2022-12-31T05:04:01.523Z,99.90
2022-12-31T05:06:06.654Z,99.90
2022-12-31T05:08:10.130Z,99.90
2022-12-31T05:10:13.405Z,99.90
2022-12-31T05:12:16.521Z,99.90
2022-12-31T05:14:20.134Z,99.90
2022-12-31T05:16:23.404Z,99.90
2022-12-31T05:18:28.151Z,99.90
2022-12-31T05:20:31.507Z,99.90
2022-12-31T05:22:34.719Z,99.90
2022-12-31T05:24:38.028Z,99.90
2022-12-31T05:26:41.277Z,99.90
2022-12-31T05:28:44.501Z,99.90
2022-12-31T05:30:50.974Z,99.90
2022-12-31T05:32:54.336Z,99.90
2022-12-31T05:35:00.253Z,99.90
2022-12-31T05:37:03.436Z,99.90
2022-12-31T05:39:06.813Z,99.90
2022-12-31T05:41:10.316Z,99.90
2022-12-31T05:43:13.511Z,99.90
2022-12-31T05:45:18.428Z,99.90
2022-12-31T05:47:22.090Z,99.90
2022-12-31T05:49:25.323Z,99.90
2022-12-31T05:51:29.785Z,99.90
2022-12-31T05:53:34.508Z,99.90
2022-12-31T05:55:37.740Z,99.90
2022-12-31T05:57:41.591Z,99.90
2022-12-31T05:59:44.811Z,99.90
2022-12-31T06:01:48.016Z,99.90
2022-12-31T06:03:51.254Z,99.90
2022-12-31T06:05:54.421Z,99.90
2022-12-31T06:08:00.996Z,99.90
2022-12-31T06:10:04.478Z,99.90
2022-12-31T06:12:08.318Z,99.90
2022-12-31T06:14:11.432Z,99.90
2022-12-31T06:16:14.640Z,99.90
2022-12-31T06:18:17.807Z,99.90
2022-12-31T06:20:21.028Z,99.90
2022-12-31T06:22:24.419Z,99.90
2022-12-31T06:24:29.109Z,99.90
2022-12-31T06:26:32.280Z,99.90
2022-12-31T06:28:35.799Z,99.90
2022-12-31T06:30:39.217Z,99.90
2022-12-31T06:32:42.610Z,99.90
2022-12-31T06:34:46.208Z,99.90
2022-12-31T06:36:49.538Z,99.90
2022-12-31T06:38:52.722Z,99.90
2022-12-31T06:40:57.629Z,99.90
2022-12-31T06:43:00.752Z,99.90
2022-12-31T06:45:03.929Z,99.90
2022-12-31T06:47:07.315Z,99.90
2022-12-31T06:49:10.525Z,99.90
2022-12-31T06:51:17.524Z,99.90
2022-12-31T06:53:21.011Z,99.90
2022-12-31T06:55:24.943Z,99.90
2022-12-31T06:57:30.562Z,99.90
2022-12-31T06:59:34.286Z,99.90
2022-12-31T07:01:50.374Z,99.90
2022-12-31T07:04:01.980Z,99.90
2022-12-31T07:06:13.340Z,99.90
2022-12-31T07:08:34.981Z,99.90
2022-12-31T07:10:46.392Z,99.90
2022-12-31T07:13:11.297Z,99.90
2022-12-31T07:15:21.030Z,99.90
2022-12-31T07:17:33.842Z,99.90
2022-12-31T07:19:57.145Z,99.90
2022-12-31T07:22:01.446Z,99.90
2022-12-31T07:24:06.958Z,99.90
2022-12-31T07:26:20.537Z,99.90
2022-12-31T07:28:39.931Z,99.90
2022-12-31T07:30:50.462Z,99.90
2022-12-31T07:33:20.177Z,99.90
2022-12-31T07:35:35.264Z,99.90
2022-12-31T07:37:47.000Z,99.90
2022-12-31T07:40:02.603Z,99.90
2022-12-31T07:42:15.376Z,99.90
2022-12-31T07:44:33.409Z,99.90
2022-12-31T07:46:55.397Z,99.90
2022-12-31T07:48:59.620Z,99.90
2022-12-31T07:51:03.374Z,99.90
2022-12-31T07:53:06.967Z,99.90
2022-12-31T07:55:10.994Z,99.90
2022-12-31T07:57:16.337Z,99.90
2022-12-31T07:59:36.635Z,99.90
2022-12-31T08:01:48.360Z,99.90
2022-12-31T08:04:01.533Z,99.90
2022-12-31T08:06:13.613Z,99.90
2022-12-31T08:08:29.278Z,99.90
2022-12-31T08:10:37.672Z,99.90
2022-12-31T08:12:42.616Z,99.90
2022-12-31T08:14:49.394Z,99.90
2022-12-31T08:16:53.304Z,99.90
2022-12-31T08:18:57.104Z,99.90
2022-12-31T08:21:09.509Z,99.90
2022-12-31T08:23:22.834Z,99.90
2022-12-31T08:25:33.703Z,99.90
2022-12-31T08:27:44.371Z,99.90
2022-12-31T08:29:58.985Z,99.90
2022-12-31T08:32:09.999Z,99.90
2022-12-31T08:34:25.089Z,99.90
2022-12-31T08:36:36.819Z,99.90
2022-12-31T08:38:48.860Z,99.90
2022-12-31T08:41:03.355Z,99.90
2022-12-31T08:43:20.530Z,99.90
2022-12-31T08:45:30.375Z,99.90
2022-12-31T08:47:44.219Z,99.90
2022-12-31T08:49:47.854Z,99.90
2022-12-31T08:51:51.556Z,99.90
2022-12-31T08:53:55.422Z,99.90
2022-12-31T08:56:04.089Z,99.90
2022-12-31T08:58:19.121Z,99.90
2022-12-31T09:00:23.529Z,99.90
2022-12-31T09:03:00.226Z,99.90
2022-12-31T09:05:15.440Z,99.90
2022-12-31T09:07:29.434Z,99.90
2022-12-31T09:09:40.501Z,99.90
2022-12-31T09:11:53.946Z,99.90
2022-12-31T09:14:22.423Z,99.90
2022-12-31T09:16:33.590Z,99.90
2022-12-31T09:18:41.426Z,99.90
2022-12-31T09:20:45.196Z,99.90
2022-12-31T09:22:49.075Z,99.90
2022-12-31T09:24:52.805Z,99.90
2022-12-31T09:27:05.824Z,99.90
2022-12-31T09:29:21.097Z,99.90
2022-12-31T09:31:32.924Z,99.90
2022-12-31T09:33:48.599Z,99.90
2022-12-31T09:35:55.257Z,99.90
2022-12-31T09:38:09.500Z,99.90
2022-12-31T09:40:39.127Z,99.90
2022-12-31T09:43:07.470Z,99.90
2022-12-31T09:45:40.133Z,99.90
2022-12-31T09:48:11.411Z,99.90
2022-12-31T09:50:39.568Z,99.90
2022-12-31T09:52:58.586Z,99.90
2022-12-31T09:55:26.909Z,99.90
2022-12-31T09:57:40.384Z,99.90
2022-12-31T09:59:49.476Z,99.90
2022-12-31T10:01:58.319Z,99.90
2022-12-31T10:04:32.215Z,99.90
2022-12-31T10:06:45.423Z,99.90
2022-12-31T10:09:12.593Z,99.90
2022-12-31T10:11:20.713Z,99.90
2022-12-31T10:13:38.226Z,99.90
2022-12-31T10:16:12.992Z,99.90
2022-12-31T10:18:34.370Z,99.90
2022-12-31T10:20:56.071Z,99.90
2022-12-31T10:23:27.241Z,99.90
2022-12-31T10:25:43.815Z,99.90
2022-12-31T10:27:55.949Z,99.90
2022-12-31T10:30:04.641Z,99.90
2022-12-31T10:32:18.046Z,99.90
2022-12-31T10:34:31.000Z,99.90
2022-12-31T10:36:56.140Z,99.90
2022-12-31T10:39:17.641Z,99.90
2022-12-31T10:42:04.466Z,99.90
2022-12-31T10:44:53.816Z,99.90
2022-12-31T10:47:27.977Z,99.90
2022-12-31T10:50:05.196Z,99.90
2022-12-31T10:52:29.245Z,99.90
2022-12-31T10:55:25.502Z,99.90
2022-12-31T10:58:00.294Z,99.90
2022-12-31T11:00:17.930Z,99.90
2022-12-31T11:02:49.693Z,99.90
2022-12-31T11:05:31.871Z,99.90
2022-12-31T11:08:05.661Z,99.90
2022-12-31T11:10:45.706Z,99.90
2022-12-31T11:13:16.360Z,99.90
2022-12-31T11:15:48.289Z,99.90
2022-12-31T11:18:03.400Z,99.90
2022-12-31T11:20:28.481Z,99.90
2022-12-31T11:22:51.987Z,99.90
2022-12-31T11:25:19.196Z,99.90
2022-12-31T11:27:33.240Z,99.90
2022-12-31T11:29:53.880Z,99.90
2022-12-31T11:32:12.343Z,99.90
2022-12-31T11:34:44.435Z,98.20
2022-12-31T11:37:00.718Z,99.60
2022-12-31T11:39:32.310Z,99.90
2022-12-31T11:41:41.785Z,99.50
2022-12-31T11:43:54.497Z,99.90
2022-12-31T11:46:54.419Z,99.30
2022-12-31T11:49:17.866Z,99.00
2022-12-31T11:51:44.249Z,98.90
2022-12-31T11:54:18.719Z,99.20
2022-12-31T11:56:26.046Z,99.00
2022-12-31T11:58:30.877Z,98.80
2022-12-31T12:00:34.908Z,98.90
2022-12-31T12:02:43.076Z,99.40
2022-12-31T12:04:51.327Z,99.90
2022-12-31T12:06:54.935Z,98.70
2022-12-31T12:09:02.657Z,99.00
2022-12-31T12:11:09.477Z,98.80
2022-12-31T12:13:16.016Z,98.50
2022-12-31T12:15:23.096Z,97.70
2022-12-31T12:17:32.398Z,97.90
2022-12-31T12:19:37.239Z,98.40
2022-12-31T12:21:48.793Z,97.60
2022-12-31T12:23:58.980Z,96.40
2022-12-31T12:26:02.253Z,96.80
2022-12-31T12:28:19.742Z,96.90
2022-12-31T12:30:25.803Z,94.80
2022-12-31T12:32:29.001Z,93.70
2022-12-31T12:34:34.053Z,94.20
2022-12-31T12:36:46.778Z,93.50
2022-12-31T12:39:02.535Z,92.90
2022-12-31T12:41:07.937Z,92.20
2022-12-31T12:43:23.745Z,91.70
2022-12-31T12:45:30.089Z,89.00
2022-12-31T12:47:34.129Z,90.00
2022-12-31T12:49:41.147Z,85.80
2022-12-31T12:51:59.360Z,85.20
2022-12-31T12:54:11.809Z,85.60
2022-12-31T12:56:28.546Z,77.60
2022-12-31T12:58:46.525Z,71.80
2022-12-31T13:03:22.761Z,65.70
2022-12-31T13:05:38.900Z,67.90
2022-12-31T13:07:54.094Z,90.20
2022-12-31T13:10:15.229Z,89.20
2022-12-31T13:14:32.446Z,64.40
2022-12-31T13:16:41.635Z,66.60
2022-12-31T13:18:56.390Z,57.40
2022-12-31T13:21:04.546Z,78.70
2022-12-31T13:23:16.613Z,59.00
2022-12-31T13:25:29.675Z,62.40
2022-12-31T13:27:38.030Z,63.20
2022-12-31T13:29:43.469Z,63.80
2022-12-31T13:31:48.675Z,62.90
2022-12-31T13:33:56.920Z,59.90
2022-12-31T13:36:03.232Z,62.20
2022-12-31T13:38:16.137Z,62.70
2022-12-31T13:40:24.990Z,63.50
2022-12-31T13:42:37.359Z,63.10
2022-12-31T13:44:46.678Z,63.00
2022-12-31T13:46:56.565Z,63.90
2022-12-31T13:49:03.764Z,66.60
2022-12-31T13:51:14.084Z,67.50
2022-12-31T13:53:23.251Z,67.10
2022-12-31T13:55:33.336Z,66.90
2022-12-31T13:57:43.420Z,70.10
2022-12-31T13:59:51.312Z,73.50
2022-12-31T14:02:00.406Z,72.40
2022-12-31T14:04:10.073Z,75.20
2022-12-31T14:06:29.888Z,76.40
2022-12-31T14:08:33.176Z,81.50
2022-12-31T14:10:51.826Z,81.60
